createdAt,value
2018-10-18T00:00:04.881Z,1016.04
2018-10-18T00:02:02.869Z,1016.02
2018-10-18T00:03:02.274Z,1016.03
2018-10-18T00:05:00.250Z,1016.06
2018-10-18T00:06:00.197Z,1016.02
2018-10-18T00:07:57.685Z,1016.05
2018-10-18T00:08:56.174Z,1015.99
2018-10-18T00:10:54.129Z,1016.01
2018-10-18T00:11:54.194Z,1015.96
2018-10-18T00:13:52.146Z,1016.00
2018-10-18T00:14:52.104Z,1015.96
2018-10-18T00:16:49.034Z,1015.97
2018-10-18T00:17:49.027Z,1015.95
2018-10-18T00:19:46.982Z,1015.93
2018-10-18T00:20:48.447Z,1015.94
2018-10-18T00:22:42.893Z,1015.95
2018-10-18T00:23:42.898Z,1015.92
2018-10-18T00:25:40.808Z,1015.96
2018-10-18T00:26:40.798Z,1015.92
2018-10-18T00:28:38.808Z,1015.93
2018-10-18T00:29:39.748Z,1015.95
2018-10-18T00:31:34.740Z,1015.93
2018-10-18T00:32:35.238Z,1015.92
2018-10-18T00:34:33.179Z,1015.98
2018-10-18T00:35:32.830Z,1015.95
2018-10-18T00:37:31.769Z,1015.97
2018-10-18T00:38:30.761Z,1015.94
2018-10-18T00:40:29.268Z,1015.95
2018-10-18T00:41:29.717Z,1015.90
2018-10-18T00:43:24.841Z,1015.91
2018-10-18T00:44:24.822Z,1016.00
2018-10-18T00:46:22.843Z,1016.00
2018-10-18T00:47:23.794Z,1015.96
2018-10-18T00:49:18.737Z,1016.01
2018-10-18T00:50:18.833Z,1015.99
2018-10-18T00:52:14.699Z,1015.99
2018-10-18T00:53:14.680Z,1015.98
2018-10-18T00:55:13.633Z,1015.99
2018-10-18T00:56:13.219Z,1015.99
2018-10-18T00:58:10.047Z,1016.02
2018-10-18T00:59:10.051Z,1015.99
2018-10-18T01:01:05.981Z,1016.02
2018-10-18T01:02:06.038Z,1015.98
2018-10-18T01:04:03.446Z,1016.03
2018-10-18T01:05:04.922Z,1016.05
2018-10-18T01:07:01.917Z,1016.06
2018-10-18T01:08:02.386Z,1016.08
2018-10-18T01:09:57.519Z,1016.03
2018-10-18T01:10:57.527Z,1016.10
2018-10-18T01:12:53.467Z,1016.10
2018-10-18T01:13:53.434Z,1016.08
2018-10-18T01:15:48.898Z,1016.07
2018-10-18T01:16:47.921Z,1016.15
2018-10-18T01:18:46.879Z,1016.13
2018-10-18T01:19:46.060Z,1016.14
2018-10-18T01:21:44.513Z,1016.16
2018-10-18T01:22:43.981Z,1016.12
2018-10-18T01:24:42.477Z,1016.16
2018-10-18T01:25:42.097Z,1016.14
2018-10-18T01:27:40.056Z,1016.12
2018-10-18T01:28:40.554Z,1016.13
2018-10-18T01:30:37.964Z,1016.18
2018-10-18T01:31:38.515Z,1016.15
2018-10-18T01:33:36.058Z,1016.16
2018-10-18T01:34:36.938Z,1016.14
2018-10-18T01:36:35.528Z,1016.12
2018-10-18T01:37:35.080Z,1016.14
2018-10-18T01:39:31.667Z,1016.11
2018-10-18T01:40:30.131Z,1016.12
2018-10-18T01:42:28.609Z,1016.08
2018-10-18T01:43:28.069Z,1016.12
2018-10-18T01:45:23.955Z,1016.16
2018-10-18T01:46:23.973Z,1016.13
2018-10-18T01:48:22.924Z,1016.16
2018-10-18T01:49:23.412Z,1016.11
2018-10-18T01:51:19.839Z,1016.18
2018-10-18T01:52:19.835Z,1016.21
2018-10-18T01:54:15.831Z,1016.15
2018-10-18T01:55:15.792Z,1016.21
2018-10-18T01:57:13.716Z,1016.15
2018-10-18T01:58:13.723Z,1016.11
2018-10-18T02:00:09.772Z,1016.14
2018-10-18T02:01:10.670Z,1016.15
2018-10-18T02:03:08.138Z,1016.12
2018-10-18T02:04:07.611Z,1016.14
2018-10-18T02:06:05.794Z,1016.17
2018-10-18T02:07:05.720Z,1016.15
2018-10-18T02:09:03.665Z,1016.16
2018-10-18T02:10:03.665Z,1016.18
2018-10-18T02:12:02.620Z,1016.22
2018-10-18T02:13:01.772Z,1016.20
2018-10-18T02:14:59.687Z,1016.20
2018-10-18T02:15:59.781Z,1016.25
2018-10-18T02:17:58.156Z,1016.26
2018-10-18T02:18:57.629Z,1016.29
2018-10-18T02:20:55.550Z,1016.31
2018-10-18T02:21:55.556Z,1016.32
2018-10-18T02:23:53.562Z,1016.34
2018-10-18T02:24:53.503Z,1016.37
2018-10-18T02:26:49.974Z,1016.36
2018-10-18T02:27:49.937Z,1016.37
2018-10-18T02:29:47.387Z,1016.35
2018-10-18T02:30:47.870Z,1016.37
2018-10-18T02:32:43.310Z,1016.36
2018-10-18T02:33:43.300Z,1016.35
2018-10-18T02:35:40.278Z,1016.33
2018-10-18T02:36:39.220Z,1016.35
2018-10-18T02:38:37.164Z,1016.36
2018-10-18T02:39:37.139Z,1016.37
2018-10-18T02:41:35.106Z,1016.40
2018-10-18T02:42:35.591Z,1016.38
2018-10-18T02:44:31.005Z,1016.40
2018-10-18T02:45:31.001Z,1016.42
2018-10-18T02:47:26.949Z,1016.39
2018-10-18T02:48:26.948Z,1016.41
2018-10-18T02:50:23.424Z,1016.42
2018-10-18T02:51:22.884Z,1016.46
2018-10-18T02:53:20.862Z,1016.43
2018-10-18T02:54:20.978Z,1016.45
2018-10-18T02:56:19.297Z,1016.46
2018-10-18T02:57:18.769Z,1016.49
2018-10-18T02:59:17.223Z,1016.49
2018-10-18T03:00:16.771Z,1016.55
2018-10-18T03:02:14.804Z,1016.47
2018-10-18T03:03:14.814Z,1016.54
2018-10-18T03:05:13.793Z,1016.48
2018-10-18T03:06:12.728Z,1016.50
2018-10-18T03:08:08.641Z,1016.50
2018-10-18T03:09:08.660Z,1016.56
2018-10-18T03:11:07.624Z,1016.52
2018-10-18T03:12:06.833Z,1016.58
2018-10-18T03:14:04.759Z,1016.55
2018-10-18T03:15:04.718Z,1016.58
2018-10-18T03:17:01.181Z,1016.57
2018-10-18T03:18:00.653Z,1016.55
2018-10-18T03:19:59.106Z,1016.56
2018-10-18T03:20:58.580Z,1016.56
2018-10-18T03:22:54.572Z,1016.57
2018-10-18T03:23:54.516Z,1016.62
2018-10-18T03:25:52.644Z,1016.62
2018-10-18T03:26:53.477Z,1016.65
2018-10-18T03:28:50.751Z,1016.65
2018-10-18T03:29:50.775Z,1016.63
2018-10-18T03:31:47.720Z,1016.62
2018-10-18T03:32:46.709Z,1016.66
2018-10-18T03:34:44.691Z,1016.65
2018-10-18T03:35:45.170Z,1016.63
2018-10-18T03:37:42.600Z,1016.68
2018-10-18T03:38:42.572Z,1016.69
2018-10-18T03:40:38.521Z,1016.73
2018-10-18T03:41:38.595Z,1016.70
2018-10-18T03:43:38.463Z,1016.77
2018-10-18T03:44:37.468Z,1016.79
2018-10-18T03:46:34.558Z,1016.79
2018-10-18T03:47:34.544Z,1016.78
2018-10-18T03:49:30.515Z,1016.74
2018-10-18T03:50:31.495Z,1016.73
2018-10-18T03:52:26.967Z,1016.77
2018-10-18T03:53:26.431Z,1016.79
2018-10-18T03:55:22.349Z,1016.76
2018-10-18T03:56:22.339Z,1016.78
2018-10-18T03:58:20.272Z,1016.75
2018-10-18T03:59:20.314Z,1016.76
2018-10-18T04:01:17.232Z,1016.75
2018-10-18T04:02:16.195Z,1016.79
2018-10-18T04:04:13.151Z,1016.77
2018-10-18T04:05:12.181Z,1016.80
2018-10-18T04:07:10.296Z,1016.83
2018-10-18T04:08:10.284Z,1016.80
2018-10-18T04:10:08.400Z,1016.82
2018-10-18T04:11:08.375Z,1016.80
2018-10-18T04:13:05.377Z,1016.84
2018-10-18T04:14:04.311Z,1016.89
2018-10-18T04:16:02.797Z,1016.87
2018-10-18T04:17:02.423Z,1016.83
2018-10-18T04:18:58.399Z,1016.84
2018-10-18T04:19:58.374Z,1016.85
2018-10-18T04:21:56.370Z,1016.82
2018-10-18T04:22:56.841Z,1016.81
2018-10-18T04:24:54.230Z,1016.80
2018-10-18T04:25:54.233Z,1016.82
2018-10-18T04:27:50.183Z,1016.82
2018-10-18T04:28:50.185Z,1016.83
2018-10-18T04:30:49.194Z,1016.88
2018-10-18T04:31:48.305Z,1016.91
2018-10-18T04:33:46.427Z,1016.91
2018-10-18T04:34:46.448Z,1016.92
2018-10-18T04:36:44.378Z,1016.91
2018-10-18T04:37:44.870Z,1016.92
2018-10-18T04:39:42.274Z,1016.90
2018-10-18T04:40:42.274Z,1016.92
2018-10-18T04:42:38.723Z,1016.97
2018-10-18T04:43:38.727Z,1016.94
2018-10-18T04:45:39.666Z,1016.98
2018-10-18T04:46:39.159Z,1016.95
2018-10-18T04:48:35.186Z,1016.93
2018-10-18T04:49:34.536Z,1016.95
2018-10-18T04:51:31.514Z,1017.00
2018-10-18T04:52:31.500Z,1017.01
2018-10-18T04:54:27.445Z,1017.00
2018-10-18T04:55:27.434Z,1017.06
2018-10-18T04:57:25.413Z,1017.04
2018-10-18T04:58:25.392Z,1017.06
2018-10-18T05:00:23.360Z,1017.05
2018-10-18T05:01:23.436Z,1017.07
2018-10-18T05:03:19.298Z,1017.08
2018-10-18T05:06:15.230Z,1017.09
2018-10-18T05:07:15.291Z,1017.10
2018-10-18T05:09:13.346Z,1017.12
2018-10-18T05:10:13.337Z,1017.09
2018-10-18T05:12:11.252Z,1017.11
2018-10-18T05:13:11.336Z,1017.10
2018-10-18T05:15:09.733Z,1017.12
2018-10-18T05:16:09.182Z,1017.10
2018-10-18T05:18:07.646Z,1017.10
2018-10-18T05:19:05.215Z,1017.11
2018-10-18T05:21:03.107Z,1017.17
2018-10-18T05:22:05.512Z,1017.19
2018-10-18T05:23:59.526Z,1017.24
2018-10-18T05:24:59.082Z,1017.25
2018-10-18T05:26:58.005Z,1017.32
2018-10-18T05:27:57.180Z,1017.34
2018-10-18T05:29:55.134Z,1017.32
2018-10-18T05:30:55.138Z,1017.35
2018-10-18T05:32:51.082Z,1017.37
2018-10-18T05:33:51.078Z,1017.38
2018-10-18T05:35:48.977Z,1017.41
2018-10-18T05:36:48.949Z,1017.39
2018-10-18T05:38:46.942Z,1017.39
2018-10-18T05:39:47.406Z,1017.41
2018-10-18T05:41:42.869Z,1017.41
2018-10-18T05:42:42.838Z,1017.40
2018-10-18T05:44:42.791Z,1017.45
2018-10-18T05:45:40.767Z,1017.47
2018-10-18T05:47:38.894Z,1017.52
2018-10-18T05:48:38.860Z,1017.54
2018-10-18T05:50:36.969Z,1017.52
2018-10-18T05:51:37.839Z,1017.55
2018-10-18T05:53:35.137Z,1017.57
2018-10-18T05:54:34.924Z,1017.58
2018-10-18T05:56:31.426Z,1017.61
2018-10-18T05:57:30.832Z,1017.59
2018-10-18T05:59:26.793Z,1017.60
2018-10-18T06:00:26.855Z,1017.56
2018-10-18T06:02:22.755Z,1017.57
2018-10-18T06:03:22.737Z,1017.59
2018-10-18T06:05:19.169Z,1017.56
2018-10-18T06:06:18.658Z,1017.59
2018-10-18T06:08:16.593Z,1017.58
2018-10-18T06:09:16.610Z,1017.61
2018-10-18T06:11:15.512Z,1017.62
2018-10-18T06:12:15.530Z,1017.63
2018-10-18T06:14:11.135Z,1017.64
2018-10-18T06:15:10.612Z,1017.67
2018-10-18T06:17:06.595Z,1017.73
2018-10-18T06:18:07.066Z,1017.70
2018-10-18T06:20:04.483Z,1017.70
2018-10-18T06:21:04.532Z,1017.73
2018-10-18T06:23:03.520Z,1017.78
2018-10-18T06:24:02.691Z,1017.76
2018-10-18T06:25:59.571Z,1017.76
2018-10-18T06:26:58.563Z,1017.77
2018-10-18T06:28:58.565Z,1017.74
2018-10-18T06:29:56.694Z,1017.78
2018-10-18T06:31:54.796Z,1017.81
2018-10-18T06:32:54.849Z,1017.77
2018-10-18T06:34:50.779Z,1017.79
2018-10-18T06:35:50.703Z,1017.80
2018-10-18T06:37:49.141Z,1017.77
2018-10-18T06:38:48.651Z,1017.77
2018-10-18T06:40:44.582Z,1017.79
2018-10-18T06:41:44.563Z,1017.80
2018-10-18T06:43:40.520Z,1017.79
2018-10-18T06:44:40.507Z,1017.84
2018-10-18T06:46:36.457Z,1017.85
2018-10-18T06:47:36.569Z,1017.82
2018-10-18T06:49:35.011Z,1017.79
2018-10-18T06:50:34.432Z,1017.83
2018-10-18T06:52:32.892Z,1017.85
2018-10-18T06:53:32.547Z,1017.86
2018-10-18T06:55:31.492Z,1017.92
2018-10-18T06:56:30.597Z,1017.91
2018-10-18T06:58:27.546Z,1017.92
2018-10-18T06:59:27.054Z,1017.98
2018-10-18T07:01:23.507Z,1017.95
2018-10-18T07:02:22.481Z,1017.96
2018-10-18T07:04:18.447Z,1017.98
2018-10-18T07:05:18.456Z,1017.93
2018-10-18T07:07:16.923Z,1017.92
2018-10-18T07:08:16.397Z,1017.93
2018-10-18T07:10:12.370Z,1017.95
2018-10-18T07:11:13.843Z,1018.00
2018-10-18T07:13:08.291Z,1018.00
2018-10-18T07:14:08.286Z,1018.02
2018-10-18T07:16:07.241Z,1018.08
2018-10-18T07:17:07.225Z,1018.06
2018-10-18T07:19:02.349Z,1018.12
2018-10-18T07:20:03.381Z,1018.11
2018-10-18T07:21:59.300Z,1018.08
2018-10-18T07:22:59.808Z,1018.09
2018-10-18T07:24:55.261Z,1018.08
2018-10-18T07:25:54.207Z,1018.10
2018-10-18T07:27:51.654Z,1018.17
2018-10-18T07:28:50.120Z,1018.14
2018-10-18T07:30:46.623Z,1018.21
2018-10-18T07:31:46.073Z,1018.19
2018-10-18T07:33:41.995Z,1018.15
2018-10-18T07:34:42.025Z,1018.17
2018-10-18T07:36:38.496Z,1018.12
2018-10-18T07:37:37.972Z,1018.14
2018-10-18T07:39:33.897Z,1018.23
2018-10-18T07:40:33.913Z,1018.22
2018-10-18T07:42:29.879Z,1018.21
2018-10-18T07:43:29.850Z,1018.26
2018-10-18T07:45:28.331Z,1018.21
2018-10-18T07:46:27.736Z,1018.21
2018-10-18T07:48:23.792Z,1018.17
2018-10-18T07:49:24.723Z,1018.16
2018-10-18T07:51:22.172Z,1018.18
2018-10-18T07:52:22.164Z,1018.15
2018-10-18T07:54:22.093Z,1018.17
2018-10-18T07:55:22.084Z,1018.22
2018-10-18T07:57:20.557Z,1018.22
2018-10-18T07:58:20.545Z,1018.24
2018-10-18T08:00:17.594Z,1018.25
2018-10-18T08:01:15.972Z,1018.24
2018-10-18T08:03:15.429Z,1018.26
2018-10-18T08:04:13.949Z,1018.24
2018-10-18T08:06:12.902Z,1018.21
2018-10-18T08:07:11.989Z,1018.23
2018-10-18T08:09:09.395Z,1018.20
2018-10-18T08:10:10.400Z,1018.23
2018-10-18T08:12:07.325Z,1018.20
2018-10-18T08:13:06.862Z,1018.18
2018-10-18T08:15:05.763Z,1018.24
2018-10-18T08:16:04.718Z,1018.22
2018-10-18T08:18:00.671Z,1018.26
2018-10-18T08:19:00.722Z,1018.29
2018-10-18T08:20:59.143Z,1018.32
2018-10-18T08:21:59.150Z,1018.32
2018-10-18T08:23:57.565Z,1018.33
2018-10-18T08:24:56.580Z,1018.28
2018-10-18T08:26:55.012Z,1018.32
2018-10-18T08:27:54.504Z,1018.29
2018-10-18T08:29:52.955Z,1018.32
2018-10-18T08:30:52.945Z,1018.37
2018-10-18T08:32:48.424Z,1018.35
2018-10-18T08:35:45.869Z,1018.35
2018-10-18T08:36:44.313Z,1018.34
2018-10-18T08:38:42.289Z,1018.29
2018-10-18T08:39:43.782Z,1018.31
2018-10-18T08:41:41.707Z,1018.32
2018-10-18T08:42:40.308Z,1018.30
2018-10-18T08:44:38.233Z,1018.33
2018-10-18T08:45:38.173Z,1018.37
2018-10-18T08:47:36.614Z,1018.37
2018-10-18T08:48:36.118Z,1018.42
2018-10-18T08:50:34.065Z,1018.45
2018-10-18T08:51:34.585Z,1018.38
2018-10-18T08:53:32.004Z,1018.36
2018-10-18T08:54:32.001Z,1018.39
2018-10-18T08:56:28.493Z,1018.40
2018-10-18T08:57:28.460Z,1018.42
2018-10-18T08:59:28.031Z,1018.48
2018-10-18T09:00:26.119Z,1018.44
2018-10-18T09:02:22.056Z,1018.42
2018-10-18T09:03:22.513Z,1018.45
2018-10-18T09:05:18.492Z,1018.47
2018-10-18T09:06:17.927Z,1018.46
2018-10-18T09:08:16.093Z,1018.43
2018-10-18T09:09:16.164Z,1018.48
2018-10-18T09:11:14.511Z,1018.50
2018-10-18T09:12:14.292Z,1018.53
2018-10-18T09:14:13.254Z,1018.54
2018-10-18T09:15:12.433Z,1018.52
2018-10-18T09:17:11.898Z,1018.58
2018-10-18T09:18:10.366Z,1018.61
2018-10-18T09:20:10.828Z,1018.61
2018-10-18T09:21:10.814Z,1018.56
2018-10-18T09:23:09.779Z,1018.63
2018-10-18T09:24:08.931Z,1018.63
2018-10-18T09:26:08.901Z,1018.69
2018-10-18T09:27:07.393Z,1018.69
2018-10-18T09:29:05.853Z,1018.73
2018-10-18T09:30:06.870Z,1018.72
2018-10-18T09:32:03.436Z,1018.68
2018-10-18T09:33:02.946Z,1018.68
2018-10-18T09:35:01.878Z,1018.70
2018-10-18T09:36:00.859Z,1018.67
2018-10-18T09:37:59.298Z,1018.72
2018-10-18T09:38:58.955Z,1018.72
2018-10-18T09:40:56.906Z,1018.70
2018-10-18T09:41:58.426Z,1018.73
2018-10-18T09:43:54.840Z,1018.77
2018-10-18T09:44:54.938Z,1018.73
2018-10-18T09:46:54.315Z,1018.72
2018-10-18T09:47:52.994Z,1018.68
2018-10-18T09:49:48.960Z,1018.69
2018-10-18T09:50:48.943Z,1018.73
2018-10-18T09:52:47.462Z,1018.76
2018-10-18T09:53:46.905Z,1018.74
2018-10-18T09:55:43.001Z,1018.78
2018-10-18T09:56:42.804Z,1018.77
2018-10-18T09:58:41.284Z,1018.78
2018-10-18T09:59:41.759Z,1018.82
2018-10-18T10:01:39.874Z,1018.80
2018-10-18T10:02:39.022Z,1018.79
2018-10-18T10:04:39.498Z,1018.85
2018-10-18T10:05:39.481Z,1018.89
2018-10-18T10:07:38.930Z,1018.86
2018-10-18T10:08:38.439Z,1018.87
2018-10-18T10:10:36.587Z,1018.83
2018-10-18T10:11:35.810Z,1018.90
2018-10-18T10:13:31.659Z,1018.86
2018-10-18T10:14:31.651Z,1018.89
2018-10-18T10:16:27.612Z,1018.87
2018-10-18T10:17:27.673Z,1018.86
2018-10-18T10:19:25.719Z,1018.84
2018-10-18T10:20:25.719Z,1018.80
2018-10-18T10:22:23.694Z,1018.84
2018-10-18T10:23:23.663Z,1018.83
2018-10-18T10:25:21.594Z,1018.82
2018-10-18T10:26:21.638Z,1018.84
2018-10-18T10:28:20.553Z,1018.82
2018-10-18T10:29:19.708Z,1018.86
2018-10-18T10:31:18.743Z,1018.83
2018-10-18T10:32:17.827Z,1018.79
2018-10-18T10:34:14.755Z,1018.83
2018-10-18T10:35:15.350Z,1018.81
2018-10-18T10:37:11.803Z,1018.75
2018-10-18T10:38:10.733Z,1018.76
2018-10-18T10:40:07.262Z,1018.82
2018-10-18T10:41:06.754Z,1018.82
2018-10-18T10:43:02.737Z,1018.85
2018-10-18T10:44:02.799Z,1018.82
2018-10-18T10:45:59.624Z,1018.80
2018-10-18T10:46:58.598Z,1018.74
2018-10-18T10:48:56.568Z,1018.77
2018-10-18T10:49:55.587Z,1018.75
2018-10-18T10:51:50.538Z,1018.73
2018-10-18T10:52:50.569Z,1018.73
2018-10-18T10:54:46.439Z,1018.74
2018-10-18T10:55:46.459Z,1018.67
2018-10-18T10:57:42.410Z,1018.64
2018-10-18T10:58:42.421Z,1018.64
2018-10-18T11:00:38.376Z,1018.68
2018-10-18T11:01:38.351Z,1018.67
2018-10-18T11:03:34.337Z,1018.60
2018-10-18T11:04:34.291Z,1018.62
2018-10-18T11:06:30.260Z,1018.56
2018-10-18T11:07:30.237Z,1018.60
2018-10-18T11:09:27.893Z,1018.59
2018-10-18T11:10:26.174Z,1018.56
2018-10-18T11:12:22.192Z,1018.55
2018-10-18T11:13:22.173Z,1018.57
2018-10-18T11:15:18.248Z,1018.58
2018-10-18T11:16:18.060Z,1018.56
2018-10-18T11:18:14.078Z,1018.57
2018-10-18T11:19:13.988Z,1018.53
2018-10-18T11:21:10.545Z,1018.53
2018-10-18T11:22:09.935Z,1018.55
2018-10-18T11:24:05.954Z,1018.59
2018-10-18T11:25:05.891Z,1018.57
2018-10-18T11:27:02.872Z,1018.57
2018-10-18T11:28:02.338Z,1018.55
2018-10-18T11:29:56.310Z,1018.54
2018-10-18T11:30:56.268Z,1018.57
2018-10-18T11:32:52.269Z,1018.55
2018-10-18T11:33:52.239Z,1018.53
2018-10-18T11:35:48.198Z,1018.52
2018-10-18T11:36:48.150Z,1018.56
2018-10-18T11:38:44.150Z,1018.56
2018-10-18T11:39:44.122Z,1018.55
2018-10-18T11:41:43.574Z,1018.55
2018-10-18T11:42:43.030Z,1018.47
2018-10-18T11:44:38.051Z,1018.47
2018-10-18T11:45:38.034Z,1018.43
2018-10-18T11:47:32.999Z,1018.47
2018-10-18T11:48:32.504Z,1018.48
2018-10-18T11:50:29.465Z,1018.39
2018-10-18T11:51:29.026Z,1018.48
2018-10-18T11:53:25.418Z,1018.40
2018-10-18T11:54:24.398Z,1018.45
2018-10-18T11:56:20.371Z,1018.46
2018-10-18T11:57:20.872Z,1018.48
2018-10-18T11:59:13.900Z,1018.47
2018-10-18T12:00:13.878Z,1018.38
2018-10-18T12:02:08.321Z,1018.44
2018-10-18T12:03:08.264Z,1018.42
2018-10-18T12:05:04.256Z,1018.42
2018-10-18T12:06:04.732Z,1018.43
2018-10-18T12:07:58.666Z,1018.40
2018-10-18T12:08:58.629Z,1018.37
2018-10-18T12:10:54.643Z,1018.45
2018-10-18T12:11:54.578Z,1018.44
2018-10-18T12:13:49.549Z,1018.48
2018-10-18T12:14:49.542Z,1018.45
2018-10-18T12:16:46.010Z,1018.45
2018-10-18T12:17:44.993Z,1018.44
2018-10-18T12:19:39.968Z,1018.42
2018-10-18T12:20:39.964Z,1018.41
2018-10-18T12:22:36.424Z,1018.40
2018-10-18T12:23:36.340Z,1018.45
2018-10-18T12:25:30.351Z,1018.39
2018-10-18T12:26:30.795Z,1018.42
2018-10-18T12:28:26.791Z,1018.38
2018-10-18T12:29:26.277Z,1018.34
2018-10-18T12:31:22.734Z,1018.37
2018-10-18T12:32:21.739Z,1018.39
2018-10-18T12:34:18.624Z,1018.39
2018-10-18T12:35:17.816Z,1018.40
2018-10-18T12:37:11.201Z,1018.38
2018-10-18T12:38:11.189Z,1018.36
2018-10-18T12:40:04.679Z,1018.39
2018-10-18T12:41:04.886Z,1018.37
2018-10-18T12:43:00.581Z,1018.38
2018-10-18T12:44:00.105Z,1018.35
2018-10-18T12:45:57.022Z,1018.37
2018-10-18T12:46:56.030Z,1018.40
2018-10-18T12:48:50.984Z,1018.38
2018-10-18T12:49:50.490Z,1018.33
2018-10-18T12:51:44.959Z,1018.36
2018-10-18T12:52:44.943Z,1018.36
2018-10-18T12:54:39.995Z,1018.36
2018-10-18T12:55:39.400Z,1018.38
2018-10-18T12:57:35.863Z,1018.38
2018-10-18T12:58:36.868Z,1018.34
2018-10-18T13:00:30.360Z,1018.33
2018-10-18T13:01:29.799Z,1018.34
2018-10-18T13:03:25.255Z,1018.34
2018-10-18T13:04:24.251Z,1018.31
2018-10-18T13:06:22.133Z,1018.38
2018-10-18T13:07:21.132Z,1018.35
2018-10-18T13:09:14.591Z,1018.34
2018-10-18T13:10:13.649Z,1018.32
2018-10-18T13:12:08.689Z,1018.33
2018-10-18T13:13:08.124Z,1018.30
2018-10-18T13:15:04.518Z,1018.35
2018-10-18T13:16:03.999Z,1018.34
2018-10-18T13:17:59.437Z,1018.30
2018-10-18T13:18:59.433Z,1018.27
2018-10-18T13:20:52.388Z,1018.35
2018-10-18T13:21:51.462Z,1018.31
2018-10-18T13:23:46.931Z,1018.33
2018-10-18T13:24:46.846Z,1018.28
2018-10-18T13:26:44.837Z,1018.30
2018-10-18T13:27:42.315Z,1018.28
2018-10-18T13:29:38.270Z,1018.36
2018-10-18T13:30:37.783Z,1018.35
2018-10-18T13:32:31.288Z,1018.35
2018-10-18T13:33:30.794Z,1018.32
2018-10-18T13:35:26.700Z,1018.32
2018-10-18T13:36:28.234Z,1018.36
2018-10-18T13:38:23.589Z,1018.35
2018-10-18T13:39:22.664Z,1018.34
2018-10-18T13:41:16.134Z,1018.29
2018-10-18T13:42:16.174Z,1018.33
2018-10-18T13:44:13.678Z,1018.29
2018-10-18T13:45:12.101Z,1018.31
2018-10-18T13:47:06.544Z,1018.32
2018-10-18T13:48:06.597Z,1018.30
2018-10-18T13:50:02.575Z,1018.29
2018-10-18T13:51:02.498Z,1018.27
2018-10-18T13:52:59.455Z,1018.26
2018-10-18T13:53:58.454Z,1018.26
2018-10-18T13:55:54.907Z,1018.29
2018-10-18T13:56:54.382Z,1018.30
2018-10-18T13:58:50.362Z,1018.28
2018-10-18T13:59:50.414Z,1018.28
2018-10-18T14:01:46.331Z,1018.29
2018-10-18T14:02:46.779Z,1018.27
2018-10-18T14:04:42.244Z,1018.26
2018-10-18T14:05:42.353Z,1018.30
2018-10-18T14:07:38.741Z,1018.30
2018-10-18T14:08:38.202Z,1018.28
2018-10-18T14:10:35.125Z,1018.25
2018-10-18T14:11:34.152Z,1018.26
2018-10-18T14:13:29.093Z,1018.28
2018-10-18T14:14:28.587Z,1018.26
2018-10-18T14:16:24.557Z,1018.21
2018-10-18T14:17:24.724Z,1018.19
2018-10-18T14:19:21.444Z,1018.25
2018-10-18T14:20:20.538Z,1018.21
2018-10-18T14:22:16.445Z,1018.25
2018-10-18T14:23:17.033Z,1018.24
2018-10-18T14:25:12.362Z,1018.25
2018-10-18T14:26:12.382Z,1018.20
2018-10-18T14:28:09.841Z,1018.19
2018-10-18T14:29:08.383Z,1018.21
2018-10-18T14:31:06.799Z,1018.16
2018-10-18T14:32:06.349Z,1018.20
2018-10-18T14:34:02.210Z,1018.20
2018-10-18T14:35:02.255Z,1018.19
2018-10-18T14:36:55.702Z,1018.21
2018-10-18T14:37:55.739Z,1018.20
2018-10-18T14:39:51.647Z,1018.18
2018-10-18T14:40:50.145Z,1018.18
2018-10-18T14:42:46.087Z,1018.16
2018-10-18T14:43:44.643Z,1018.14
2018-10-18T14:45:38.999Z,1018.14
2018-10-18T14:46:39.049Z,1018.11
2018-10-18T14:48:34.966Z,1018.10
2018-10-18T14:49:34.959Z,1018.10
2018-10-18T14:51:30.956Z,1018.08
2018-10-18T14:52:30.912Z,1018.08
2018-10-18T14:54:27.796Z,1018.15
2018-10-18T14:55:27.376Z,1018.12
2018-10-18T14:57:22.333Z,1018.14
2018-10-18T14:58:21.310Z,1018.13
2018-10-18T15:00:15.769Z,1018.10
2018-10-18T15:01:15.771Z,1018.11
2018-10-18T15:03:12.243Z,1018.11
2018-10-18T15:04:13.156Z,1018.10
2018-10-18T15:06:06.203Z,1018.08
2018-10-18T15:07:06.195Z,1018.09
2018-10-18T15:09:00.676Z,1018.10
2018-10-18T15:10:00.652Z,1018.09
2018-10-18T15:11:55.629Z,1018.07
2018-10-18T15:12:55.614Z,1018.02
2018-10-18T15:14:50.100Z,1018.01
2018-10-18T15:15:50.044Z,1018.02
2018-10-18T15:17:45.997Z,1018.01
2018-10-18T15:18:45.997Z,1018.01
2018-10-18T15:20:42.940Z,1018.02
2018-10-18T15:21:42.977Z,1018.02
2018-10-18T15:23:37.937Z,1018.01
2018-10-18T15:24:37.895Z,1018.05
2018-10-18T15:26:34.034Z,1018.04
2018-10-18T15:27:34.413Z,1018.02
2018-10-18T15:29:27.300Z,1018.03
2018-10-18T15:30:27.333Z,1018.08
2018-10-18T15:32:23.296Z,1018.09
2018-10-18T15:33:23.767Z,1018.02
2018-10-18T15:35:19.293Z,1018.06
2018-10-18T15:36:19.150Z,1018.09
2018-10-18T15:38:15.740Z,1018.09
2018-10-18T15:39:15.334Z,1018.07
2018-10-18T15:41:13.662Z,1018.08
2018-10-18T15:42:13.061Z,1018.06
2018-10-18T15:44:07.589Z,1018.07
2018-10-18T15:45:07.711Z,1018.03
2018-10-18T15:47:03.555Z,1018.03
2018-10-18T15:48:03.500Z,1018.06
2018-10-18T15:49:59.467Z,1018.05
2018-10-18T15:50:59.473Z,1018.08
2018-10-18T15:52:53.960Z,1018.11
2018-10-18T15:53:54.416Z,1018.12
2018-10-18T15:55:49.876Z,1018.13
2018-10-18T15:56:49.791Z,1018.12
2018-10-18T15:58:44.256Z,1018.11
2018-10-18T15:59:44.258Z,1018.09
2018-10-18T16:01:38.227Z,1018.07
2018-10-18T16:02:38.203Z,1018.04
2018-10-18T16:04:33.661Z,1018.07
2018-10-18T16:05:33.639Z,1018.07
2018-10-18T16:07:30.095Z,1018.12
2018-10-18T16:08:29.590Z,1018.13
2018-10-18T16:10:24.041Z,1018.11
2018-10-18T16:11:24.097Z,1018.09
2018-10-18T16:13:18.973Z,1018.19
2018-10-18T16:14:18.675Z,1018.18
2018-10-18T16:16:12.923Z,1018.18
2018-10-18T16:17:13.031Z,1018.19
2018-10-18T16:19:09.826Z,1018.17
2018-10-18T16:20:09.398Z,1018.20
2018-10-18T16:22:04.856Z,1018.23
2018-10-18T16:23:04.865Z,1018.23
2018-10-18T16:24:59.253Z,1018.23
2018-10-18T16:25:59.341Z,1018.24
2018-10-18T16:27:54.198Z,1018.26
2018-10-18T16:28:53.723Z,1018.28
2018-10-18T16:30:49.649Z,1018.29
2018-10-18T16:31:49.654Z,1018.34
2018-10-18T16:33:45.184Z,1018.35
2018-10-18T16:34:43.152Z,1018.35
2018-10-18T16:36:40.609Z,1018.33
2018-10-18T16:37:39.113Z,1018.34
2018-10-18T16:39:36.000Z,1018.37
2018-10-18T16:40:35.061Z,1018.43
2018-10-18T16:42:29.501Z,1018.47
2018-10-18T16:43:30.507Z,1018.48
2018-10-18T16:45:24.466Z,1018.50
2018-10-18T16:46:23.965Z,1018.48
2018-10-18T16:48:20.470Z,1018.49
2018-10-18T16:49:19.397Z,1018.47
2018-10-18T16:51:13.372Z,1018.47
2018-10-18T16:52:12.955Z,1018.50
2018-10-18T16:54:11.944Z,1018.51
2018-10-18T16:55:10.802Z,1018.50
2018-10-18T16:57:05.268Z,1018.52
2018-10-18T16:58:05.281Z,1018.53
2018-10-18T16:59:59.768Z,1018.50
2018-10-18T17:00:59.722Z,1018.51
2018-10-18T17:02:55.697Z,1018.52
2018-10-18T17:03:55.720Z,1018.55
2018-10-18T17:05:51.648Z,1018.54
2018-10-18T17:06:50.078Z,1018.50
2018-10-18T17:08:46.057Z,1018.54
2018-10-18T17:09:46.030Z,1018.54
2018-10-18T17:11:40.498Z,1018.50
2018-10-18T17:12:40.474Z,1018.53
2018-10-18T17:14:36.451Z,1018.55
2018-10-18T17:15:36.446Z,1018.57
2018-10-18T17:17:32.384Z,1018.57
2018-10-18T17:18:30.969Z,1018.56
2018-10-18T17:20:26.999Z,1018.59
2018-10-18T17:21:26.862Z,1018.63
2018-10-18T17:23:22.840Z,1018.64
2018-10-18T17:24:23.309Z,1018.66
2018-10-18T17:26:18.909Z,1018.70
2018-10-18T17:27:18.854Z,1018.69
2018-10-18T17:29:14.707Z,1018.67
2018-10-18T17:30:14.736Z,1018.69
2018-10-18T17:32:11.624Z,1018.75
2018-10-18T17:33:11.624Z,1018.73
2018-10-18T17:35:07.100Z,1018.72
2018-10-18T17:36:06.628Z,1018.72
2018-10-18T17:38:02.556Z,1018.74
2018-10-18T17:39:02.517Z,1018.72
2018-10-18T17:40:56.986Z,1018.72
2018-10-18T17:41:57.021Z,1018.69
2018-10-18T17:43:52.429Z,1018.67
2018-10-18T17:44:51.398Z,1018.64
2018-10-18T17:46:46.851Z,1018.68
2018-10-18T17:47:45.856Z,1018.70
2018-10-18T17:49:41.834Z,1018.64